Time;durP1;ratioP1;P1;durP2;ratioP2;P2;SDS_P1;SDS_P2;PMS_P1;PMS_P2;Temp;Humidity;BMP_temperature;BMP_pressure;BME280_temperature;BME280_humidity;BME280_pressure;Samples;Min_cycle;Max_cycle;Signal;HPM_P1;HPM_P2
2022/11/06 00:00:41;;;;;;;8.00;4.73;;;7.00;99.90;;;;;;5028906;28;20220;-77
2022/11/06 00:03:08;;;;;;;7.70;4.40;;;7.00;99.90;;;;;;5046614;28;20741;-77
2022/11/06 00:08:28;;;;;;;7.00;4.23;;;7.00;99.90;;;;;;5041051;28;20228;-80
2022/11/06 00:10:55;;;;;;;6.93;4.17;;;7.00;99.90;;;;;;5044506;28;20309;-81
2022/11/06 00:13:23;;;;;;;7.53;4.37;;;7.00;99.90;;;;;;5044391;28;20421;-80
2022/11/06 00:15:50;;;;;;;5.37;3.57;;;7.00;99.90;;;;;;5024039;28;20232;-79
2022/11/06 00:18:17;;;;;;;6.60;4.30;;;7.00;99.90;;;;;;5033911;28;20312;-78
2022/11/06 00:20:44;;;;;;;7.97;4.10;;;7.00;99.90;;;;;;5027733;28;20802;-78
2022/11/06 00:23:10;;;;;;;5.37;3.70;;;7.00;99.90;;;;;;5027403;28;20680;-79
2022/11/06 00:25:40;;;;;;;8.50;4.00;;;7.10;99.90;;;;;;5044312;28;20261;-79
2022/11/06 00:28:07;;;;;;;8.47;3.80;;;7.10;99.90;;;;;;5046045;28;20231;-79
2022/11/06 00:30:35;;;;;;;6.20;3.80;;;7.10;99.90;;;;;;5025936;28;20232;-79
2022/11/06 00:33:01;;;;;;;6.93;3.73;;;7.10;99.90;;;;;;5033253;28;20222;-80
2022/11/06 00:35:28;;;;;;;7.97;3.57;;;7.10;99.90;;;;;;5043640;28;20696;-81
2022/11/06 00:37:55;;;;;;;7.03;3.37;;;7.10;99.90;;;;;;5026163;28;20605;-79
2022/11/06 00:40:22;;;;;;;8.50;3.30;;;7.20;99.90;;;;;;5027432;28;20215;-79
2022/11/06 00:42:52;;;;;;;4.73;3.37;;;7.20;99.90;;;;;;5029168;28;20232;-80
2022/11/06 00:45:19;;;;;;;6.33;3.67;;;7.20;99.90;;;;;;5023355;28;20222;-80
2022/11/06 00:47:47;;;;;;;6.80;3.50;;;7.20;99.90;;;;;;5032631;28;20971;-80
2022/11/06 00:50:14;;;;;;;6.17;3.67;;;7.20;99.90;;;;;;5045607;28;20223;-79
2022/11/06 00:52:40;;;;;;;6.00;3.60;;;7.20;99.90;;;;;;5029902;28;20312;-79
2022/11/06 00:55:08;;;;;;;4.73;3.60;;;7.30;99.90;;;;;;5046970;28;20237;-80
2022/11/06 00:57:34;;;;;;;5.30;3.30;;;7.30;99.90;;;;;;5029707;28;20222;-80
2022/11/06 01:00:01;;;;;;;4.93;3.23;;;7.30;99.90;;;;;;5034584;28;20323;-78
2022/11/06 01:02:28;;;;;;;7.67;4.00;;;7.30;99.90;;;;;;5045377;28;20284;-79
2022/11/06 01:04:56;;;;;;;8.50;3.40;;;7.30;99.90;;;;;;5043140;28;20224;-79
2022/11/06 01:07:22;;;;;;;6.27;3.63;;;7.40;99.90;;;;;;5043430;28;20228;-79
2022/11/06 01:09:49;;;;;;;6.43;3.50;;;7.30;99.90;;;;;;5026523;28;20259;-80
2022/11/06 01:12:16;;;;;;;5.63;3.43;;;7.30;99.90;;;;;;5039132;28;20225;-80
2022/11/06 01:14:43;;;;;;;9.73;3.50;;;7.30;99.90;;;;;;5025841;28;20228;-79
2022/11/06 01:17:10;;;;;;;7.07;3.50;;;7.30;99.90;;;;;;5043091;28;20256;-79
2022/11/06 01:19:37;;;;;;;6.90;3.60;;;7.30;99.90;;;;;;5030283;28;20725;-79
2022/11/06 01:22:05;;;;;;;7.07;3.30;;;7.30;99.90;;;;;;5048139;28;20245;-81
2022/11/06 01:24:33;;;;;;;5.27;3.17;;;7.30;99.90;;;;;;5023989;28;20214;-78
2022/11/06 01:27:00;;;;;;;6.10;3.40;;;7.30;99.90;;;;;;5043502;28;20281;-80
2022/11/06 01:29:26;;;;;;;9.87;3.40;;;7.20;99.90;;;;;;5023687;28;20708;-79
2022/11/06 01:31:53;;;;;;;5.00;3.23;;;7.20;99.90;;;;;;5025303;28;20230;-82
2022/11/06 01:34:20;;;;;;;4.57;3.47;;;7.20;99.90;;;;;;5028708;28;20233;-81
2022/11/06 01:36:46;;;;;;;5.03;2.70;;;7.10;99.90;;;;;;5027676;28;20232;-81
2022/11/06 01:39:15;;;;;;;6.50;3.20;;;7.10;99.90;;;;;;5030234;28;20228;-82
2022/11/06 01:41:44;;;;;;;4.80;3.23;;;7.10;99.90;;;;;;5029913;28;20251;-79
2022/11/06 01:44:48;;;;;;;5.67;3.13;;;7.10;99.90;;;;;;5027450;28;20230;-79
2022/11/06 01:47:23;;;;;;;6.77;3.23;;;7.00;99.90;;;;;;5029854;28;20221;-80
2022/11/06 01:49:52;;;;;;;5.83;3.40;;;7.10;99.90;;;;;;5053805;28;20248;-80
2022/11/06 01:52:22;;;;;;;4.60;3.20;;;7.10;99.90;;;;;;5044497;28;20943;-79
2022/11/06 01:54:53;;;;;;;4.83;3.20;;;7.10;99.90;;;;;;5048663;28;20222;-82
2022/11/06 01:57:21;;;;;;;5.80;3.20;;;7.10;99.90;;;;;;5043864;28;20934;-79
2022/11/06 01:59:50;;;;;;;5.43;3.00;;;7.10;99.90;;;;;;5032122;28;20239;-78
2022/11/06 02:02:18;;;;;;;6.33;3.40;;;7.10;99.90;;;;;;5045541;28;20221;-78
2022/11/06 02:04:47;;;;;;;5.00;3.20;;;7.10;99.90;;;;;;5033478;28;20216;-79
2022/11/06 02:07:15;;;;;;;5.87;3.07;;;7.10;99.90;;;;;;5040019;28;20646;-79
2022/11/06 02:09:41;;;;;;;4.87;2.93;;;7.10;99.90;;;;;;5043838;28;20217;-77
2022/11/06 02:12:32;;;;;;;6.57;3.30;;;7.10;99.90;;;;;;5044002;28;20220;-78
2022/11/06 02:15:06;;;;;;;4.97;3.30;;;7.10;99.90;;;;;;5040317;28;20216;-78
2022/11/06 02:17:44;;;;;;;6.67;2.73;;;7.20;99.90;;;;;;5044136;28;20224;-78
2022/11/06 02:20:18;;;;;;;4.97;3.60;;;7.20;99.90;;;;;;5047579;28;20228;-78
2022/11/06 02:23:09;;;;;;;5.50;3.00;;;7.30;99.90;;;;;;5045236;28;20720;-78
2022/11/06 02:25:46;;;;;;;5.50;3.10;;;7.30;99.90;;;;;;5044150;28;20319;-78
2022/11/06 02:28:21;;;;;;;5.23;3.10;;;7.30;99.90;;;;;;5042513;28;20249;-77
2022/11/06 02:30:49;;;;;;;7.00;3.33;;;7.30;99.90;;;;;;5029903;28;20263;-78
2022/11/06 02:33:19;;;;;;;6.10;3.50;;;7.40;99.90;;;;;;5044666;28;20221;-78
2022/11/06 02:35:51;;;;;;;6.17;3.40;;;7.40;99.90;;;;;;5044410;28;20229;-78
2022/11/06 02:38:22;;;;;;;4.73;3.37;;;7.40;99.90;;;;;;5052086;28;20226;-78
2022/11/06 02:40:52;;;;;;;5.40;3.17;;;7.40;99.90;;;;;;5026798;28;20222;-78
2022/11/06 02:43:24;;;;;;;6.30;3.23;;;7.40;99.90;;;;;;5047469;28;20209;-79
2022/11/06 02:45:55;;;;;;;5.53;3.33;;;7.50;99.90;;;;;;5045306;28;20305;-79
2022/11/06 02:48:32;;;;;;;4.23;2.77;;;7.50;99.90;;;;;;5030614;28;20230;-79
2022/11/06 02:51:03;;;;;;;6.97;2.80;;;7.50;99.90;;;;;;5040917;28;20588;-79
2022/11/06 02:53:31;;;;;;;5.97;3.10;;;7.50;99.90;;;;;;5048912;28;20261;-79
2022/11/06 02:56:05;;;;;;;4.20;3.13;;;7.50;99.90;;;;;;5030185;28;20230;-79
2022/11/06 02:58:35;;;;;;;5.20;3.33;;;7.50;99.90;;;;;;5047681;28;20230;-79
2022/11/06 03:01:07;;;;;;;7.27;3.60;;;7.50;99.90;;;;;;5050684;28;20223;-78
2022/11/06 03:03:39;;;;;;;5.90;3.20;;;7.60;99.90;;;;;;5049922;28;20232;-78
2022/11/06 03:06:10;;;;;;;5.67;3.30;;;7.50;99.90;;;;;;5045866;28;20224;-78
2022/11/06 03:08:42;;;;;;;7.63;3.47;;;7.60;99.90;;;;;;5047164;28;20221;-78
2022/11/06 03:11:15;;;;;;;4.37;3.13;;;7.60;99.90;;;;;;5029621;28;20228;-78
2022/11/06 03:13:52;;;;;;;8.67;3.40;;;7.60;99.90;;;;;;5031374;28;20258;-78
2022/11/06 03:16:28;;;;;;;6.93;3.07;;;7.60;99.90;;;;;;5027183;28;20224;-78
2022/11/06 03:19:02;;;;;;;5.70;2.97;;;7.60;99.90;;;;;;5047445;28;20716;-77
2022/11/06 03:21:36;;;;;;;5.17;3.30;;;7.70;99.90;;;;;;5036563;28;20226;-78
2022/11/06 03:24:10;;;;;;;5.40;3.40;;;7.70;99.90;;;;;;5043284;28;20220;-77
2022/11/06 03:26:41;;;;;;;5.10;3.00;;;7.60;99.90;;;;;;5030803;28;20238;-77
2022/11/06 03:29:16;;;;;;;3.97;3.10;;;7.60;99.90;;;;;;5024065;28;20233;-78
2022/11/06 03:31:51;;;;;;;4.23;3.00;;;7.60;99.90;;;;;;5043590;28;20234;-78
2022/11/06 03:34:24;;;;;;;5.03;3.30;;;7.60;99.90;;;;;;5046617;28;20221;-78
2022/11/06 03:36:58;;;;;;;8.23;3.20;;;7.60;99.90;;;;;;5047845;28;20229;-78
2022/11/06 03:39:28;;;;;;;5.37;2.93;;;7.60;99.90;;;;;;5046984;28;20228;-78
2022/11/06 03:42:02;;;;;;;5.50;3.53;;;7.60;99.90;;;;;;5047418;28;20277;-78
2022/11/06 03:44:32;;;;;;;5.77;3.43;;;7.60;99.90;;;;;;5028786;28;20228;-78
2022/11/06 03:47:04;;;;;;;4.33;2.80;;;7.60;99.90;;;;;;5046398;28;20779;-78
2022/11/06 03:49:35;;;;;;;5.70;3.10;;;7.60;99.90;;;;;;5040792;28;20367;-78
2022/11/06 03:52:08;;;;;;;3.73;3.13;;;7.60;99.90;;;;;;5046709;28;20225;-79
2022/11/06 03:54:39;;;;;;;4.47;2.97;;;7.60;99.90;;;;;;5029532;28;20221;-78
2022/11/06 03:57:11;;;;;;;5.60;3.17;;;7.60;99.90;;;;;;5029128;28;20618;-78
2022/11/06 03:59:44;;;;;;;5.93;3.23;;;7.60;99.90;;;;;;5042958;28;20264;-78
2022/11/06 04:02:13;;;;;;;5.70;3.10;;;7.60;99.90;;;;;;5043782;28;20230;-78
2022/11/06 04:04:47;;;;;;;5.57;3.13;;;7.60;99.90;;;;;;5044856;28;20305;-78
2022/11/06 04:07:19;;;;;;;4.67;3.20;;;7.60;99.90;;;;;;5022458;28;20234;-77
2022/11/06 04:15:30;;;;;;;3.70;2.63;;;7.70;99.90;;;;;;5043329;28;20808;-77
2022/11/06 04:17:56;;;;;;;5.27;2.97;;;7.70;99.90;;;;;;5045835;28;20255;-76
2022/11/06 04:23:31;;;;;;;4.83;2.80;;;7.70;99.90;;;;;;5043253;28;20216;-77
2022/11/06 04:28:58;;;;;;;7.63;2.83;;;7.70;99.90;;;;;;5045065;28;20225;-76
2022/11/06 04:31:36;;;;;;;11.00;3.97;;;7.70;99.90;;;;;;5027864;28;20227;-76
2022/11/06 04:34:09;;;;;;;9.77;3.33;;;7.70;99.90;;;;;;5019577;28;20840;-75
2022/11/06 04:36:45;;;;;;;4.73;3.13;;;7.60;99.90;;;;;;5044528;28;20240;-76
2022/11/06 04:39:18;;;;;;;5.50;3.40;;;7.60;99.90;;;;;;5036997;28;20224;-76
2022/11/06 04:41:51;;;;;;;5.00;2.70;;;7.50;99.90;;;;;;5032559;28;20731;-77
2022/11/06 04:44:23;;;;;;;4.33;2.87;;;7.50;99.90;;;;;;5040960;28;20252;-77
2022/11/06 04:46:55;;;;;;;9.20;3.30;;;7.50;99.90;;;;;;5046760;28;20226;-77
2022/11/06 04:49:24;;;;;;;5.13;2.97;;;7.40;99.90;;;;;;5045309;28;20209;-78
2022/11/06 04:51:51;;;;;;;7.00;2.90;;;7.40;99.90;;;;;;5025468;28;20231;-77
2022/11/06 04:54:19;;;;;;;7.30;2.70;;;7.40;99.90;;;;;;5042838;28;20225;-77
2022/11/06 04:56:46;;;;;;;5.03;2.93;;;7.40;99.90;;;;;;5027869;28;20273;-77
2022/11/06 04:59:16;;;;;;;4.43;2.93;;;7.40;99.90;;;;;;5046300;28;20227;-77
2022/11/06 05:01:43;;;;;;;5.90;2.77;;;7.40;99.90;;;;;;5022640;28;20300;-78
2022/11/06 05:04:11;;;;;;;11.07;3.20;;;7.40;99.90;;;;;;5047143;28;20230;-78
2022/11/06 05:06:38;;;;;;;4.60;2.67;;;7.40;99.90;;;;;;5045712;28;20693;-77
2022/11/06 05:09:05;;;;;;;4.20;2.90;;;7.40;99.90;;;;;;5024878;28;20591;-77
2022/11/06 05:11:31;;;;;;;6.23;3.10;;;7.40;99.90;;;;;;5045564;28;20229;-77
2022/11/06 05:13:58;;;;;;;3.87;2.57;;;7.40;99.90;;;;;;5038610;28;20222;-77
2022/11/06 05:16:24;;;;;;;4.47;2.80;;;7.50;99.90;;;;;;5045191;28;20618;-77
2022/11/06 05:18:51;;;;;;;8.37;3.00;;;7.50;99.90;;;;;;5027066;28;20333;-77
2022/11/06 05:24:05;;;;;;;7.30;2.80;;;7.40;99.90;;;;;;5041475;28;20224;-76
2022/11/06 05:26:31;;;;;;;5.97;2.70;;;7.50;99.90;;;;;;5045620;28;20247;-77
2022/11/06 05:28:58;;;;;;;3.60;2.43;;;7.50;99.90;;;;;;5041581;28;20222;-77
2022/11/06 05:31:25;;;;;;;7.97;2.90;;;7.50;99.90;;;;;;5044587;28;20308;-77
2022/11/06 05:33:52;;;;;;;4.73;2.60;;;7.50;99.90;;;;;;5046104;28;20234;-76
2022/11/06 05:36:23;;;;;;;8.07;2.70;;;7.50;99.90;;;;;;5041058;28;20219;-78
2022/11/06 05:38:50;;;;;;;5.07;2.70;;;7.50;99.90;;;;;;5047204;28;20232;-76
2022/11/06 05:41:17;;;;;;;3.60;2.23;;;7.50;99.90;;;;;;5040215;28;20225;-76
2022/11/06 05:43:43;;;;;;;5.77;2.60;;;7.50;99.90;;;;;;5043760;28;20303;-77
2022/11/06 05:46:10;;;;;;;4.33;2.27;;;7.50;99.90;;;;;;5026301;28;20226;-76
2022/11/06 05:48:37;;;;;;;4.27;2.70;;;7.60;99.90;;;;;;5044573;28;20225;-77
2022/11/06 05:51:05;;;;;;;6.63;2.40;;;7.60;99.90;;;;;;5041502;28;20216;-76
2022/11/06 05:53:36;;;;;;;3.40;2.70;;;7.60;99.90;;;;;;5029045;28;20232;-76
2022/11/06 05:56:04;;;;;;;6.93;2.73;;;7.60;99.90;;;;;;5041268;28;20221;-77
2022/11/06 05:58:31;;;;;;;4.60;2.57;;;7.70;99.90;;;;;;5041712;28;20276;-77
2022/11/06 06:00:58;;;;;;;5.00;2.63;;;7.70;99.90;;;;;;5024795;28;20232;-76
2022/11/06 06:03:26;;;;;;;6.47;3.27;;;7.70;99.90;;;;;;5045138;28;20229;-77
2022/11/06 06:05:52;;;;;;;5.07;2.70;;;7.70;99.90;;;;;;5028704;28;20225;-75
2022/11/06 06:08:19;;;;;;;4.87;2.80;;;7.70;99.90;;;;;;5049005;28;20246;-81
2022/11/06 06:10:47;;;;;;;5.80;2.60;;;7.70;99.90;;;;;;5049210;28;20230;-79
2022/11/06 06:13:14;;;;;;;5.53;2.70;;;7.70;99.90;;;;;;5043834;28;20235;-79
2022/11/06 06:15:42;;;;;;;7.43;3.10;;;7.70;99.90;;;;;;5030016;28;20230;-78
2022/11/06 06:18:09;;;;;;;3.17;2.30;;;7.80;99.90;;;;;;5050823;28;20232;-77
2022/11/06 06:20:37;;;;;;;8.20;2.73;;;7.80;99.90;;;;;;5052657;28;20215;-78
2022/11/06 06:23:04;;;;;;;5.27;2.37;;;7.80;99.90;;;;;;5047735;28;20763;-78
2022/11/06 06:25:31;;;;;;;6.37;2.87;;;7.80;99.90;;;;;;5028575;28;20246;-77
2022/11/06 06:27:59;;;;;;;4.93;2.70;;;7.80;99.90;;;;;;5052140;28;20225;-78
2022/11/06 06:30:25;;;;;;;5.23;2.67;;;7.80;99.90;;;;;;5051486;28;20230;-78
2022/11/06 06:32:52;;;;;;;7.30;2.93;;;7.80;99.90;;;;;;5045794;28;20253;-77
2022/11/06 06:35:20;;;;;;;5.73;2.50;;;7.80;99.90;;;;;;5031383;28;20313;-78
2022/11/06 06:37:51;;;;;;;7.63;2.27;;;7.90;99.90;;;;;;5047194;28;20221;-78
2022/11/06 06:40:18;;;;;;;6.83;2.97;;;7.90;99.90;;;;;;5025573;28;20758;-77
2022/11/06 06:42:45;;;;;;;6.03;2.70;;;7.90;99.90;;;;;;5041181;28;20280;-78
2022/11/06 06:45:13;;;;;;;6.37;2.27;;;8.00;99.90;;;;;;5038997;28;20290;-78
2022/11/06 06:47:39;;;;;;;6.63;2.70;;;8.00;99.90;;;;;;5031519;28;20302;-77
2022/11/06 06:50:07;;;;;;;4.67;2.40;;;8.00;99.90;;;;;;5033694;28;20689;-77
2022/11/06 06:52:34;;;;;;;5.63;2.63;;;8.10;99.90;;;;;;5044481;28;20265;-77
2022/11/06 06:55:01;;;;;;;4.00;2.23;;;8.10;99.90;;;;;;5041028;28;20221;-78
2022/11/06 06:57:27;;;;;;;3.97;2.30;;;8.10;99.90;;;;;;5041567;28;20246;-78
2022/11/06 06:59:56;;;;;;;6.03;2.57;;;8.10;99.90;;;;;;5026173;28;20696;-77
2022/11/06 07:02:24;;;;;;;4.47;2.43;;;8.20;99.90;;;;;;5027141;28;21674;-77
2022/11/06 07:04:51;;;;;;;4.37;2.30;;;8.20;99.90;;;;;;5040845;28;21923;-77
2022/11/06 07:07:18;;;;;;;4.00;2.67;;;8.20;99.90;;;;;;5032637;28;20244;-77
2022/11/06 07:09:44;;;;;;;5.63;2.60;;;8.20;99.90;;;;;;5047096;28;20415;-78
2022/11/06 07:12:11;;;;;;;5.23;2.30;;;8.20;99.90;;;;;;5043239;28;20226;-77
2022/11/06 07:14:38;;;;;;;6.47;2.50;;;8.20;99.90;;;;;;5045220;28;20225;-78
2022/11/06 07:17:05;;;;;;;5.47;2.40;;;8.20;99.90;;;;;;5046617;28;20296;-78
2022/11/06 07:19:33;;;;;;;4.67;2.50;;;8.20;99.90;;;;;;5048192;28;20238;-78
2022/11/06 07:21:59;;;;;;;4.57;2.20;;;8.30;99.90;;;;;;5046406;28;20215;-78
2022/11/06 07:24:26;;;;;;;3.90;2.13;;;8.30;99.90;;;;;;5043905;28;20231;-78
2022/11/06 07:26:52;;;;;;;3.83;2.03;;;8.30;99.90;;;;;;5022969;28;20230;-77
2022/11/06 07:29:19;;;;;;;6.77;2.60;;;8.40;99.90;;;;;;5023663;28;20212;-78
2022/11/06 07:31:46;;;;;;;3.70;2.00;;;8.40;99.90;;;;;;5049370;28;20239;-77
2022/11/06 07:34:12;;;;;;;6.40;2.30;;;8.50;99.90;;;;;;5042917;28;20342;-78
2022/11/06 07:36:42;;;;;;;6.87;2.73;;;8.50;99.90;;;;;;5047775;28;20231;-77
2022/11/06 07:39:08;;;;;;;4.50;2.13;;;8.50;99.90;;;;;;5048857;28;20224;-77
2022/11/06 07:41:35;;;;;;;3.67;1.87;;;8.50;99.90;;;;;;5046950;28;20234;-78
2022/11/06 07:44:02;;;;;;;4.13;2.23;;;8.60;99.90;;;;;;5030459;28;20227;-77
2022/11/06 07:46:28;;;;;;;5.33;2.10;;;8.60;99.90;;;;;;5041818;28;20227;-78
2022/11/06 07:48:55;;;;;;;3.10;2.03;;;8.60;99.90;;;;;;5045228;28;20654;-76
2022/11/06 07:51:22;;;;;;;2.93;2.00;;;8.60;99.90;;;;;;5048467;28;20225;-76
2022/11/06 07:53:51;;;;;;;6.67;2.00;;;8.70;99.90;;;;;;5044048;28;20313;-77
2022/11/06 07:56:17;;;;;;;5.13;2.47;;;8.70;99.90;;;;;;5044551;28;20757;-77
2022/11/06 07:58:44;;;;;;;5.50;2.70;;;8.80;99.90;;;;;;5047146;28;20219;-78
2022/11/06 08:01:15;;;;;;;4.43;1.73;;;8.80;99.90;;;;;;5026422;28;20229;-78
2022/11/06 08:03:42;;;;;;;5.43;2.10;;;8.80;99.90;;;;;;5021498;28;20219;-77
2022/11/06 08:06:08;;;;;;;3.90;1.87;;;8.90;99.90;;;;;;5044360;28;20230;-77
2022/11/06 08:08:35;;;;;;;3.10;1.87;;;8.80;99.90;;;;;;5046168;28;20224;-78
2022/11/06 08:11:04;;;;;;;5.87;2.33;;;8.80;99.90;;;;;;5052156;28;20741;-79
2022/11/06 08:13:32;;;;;;;5.07;2.07;;;8.90;99.90;;;;;;5042240;28;20235;-78
2022/11/06 08:15:59;;;;;;;5.73;2.07;;;8.80;99.90;;;;;;5028128;28;20239;-77
2022/11/06 08:18:26;;;;;;;8.30;2.40;;;8.90;99.90;;;;;;5046617;28;20229;-78
2022/11/06 08:20:53;;;;;;;5.40;2.10;;;8.90;99.90;;;;;;5045906;28;20227;-77
2022/11/06 08:23:20;;;;;;;6.80;2.40;;;8.90;99.90;;;;;;5049923;28;20224;-77
2022/11/06 08:25:46;;;;;;;7.37;3.50;;;9.00;99.90;;;;;;5034084;28;20315;-77
2022/11/06 08:28:15;;;;;;;6.20;2.30;;;9.00;99.90;;;;;;5045916;28;20225;-76
2022/11/06 08:30:41;;;;;;;3.57;2.03;;;9.00;99.90;;;;;;5024824;28;20280;-77
2022/11/06 08:33:08;;;;;;;3.90;2.33;;;9.00;99.90;;;;;;5024931;28;20213;-76
2022/11/06 08:35:37;;;;;;;8.40;2.43;;;9.00;99.90;;;;;;5044491;28;20225;-77
2022/11/06 08:38:04;;;;;;;3.80;2.17;;;9.10;99.90;;;;;;5044729;28;20224;-78
2022/11/06 08:40:31;;;;;;;4.70;2.40;;;9.00;99.90;;;;;;5033204;28;20249;-77
2022/11/06 08:43:00;;;;;;;4.27;1.80;;;9.00;99.90;;;;;;5031602;28;20224;-77
2022/11/06 08:45:28;;;;;;;3.60;2.07;;;9.10;99.90;;;;;;5045810;28;20229;-78
2022/11/06 08:47:55;;;;;;;5.57;2.80;;;9.20;99.90;;;;;;5053763;28;20907;-77
2022/11/06 08:50:22;;;;;;;6.53;2.30;;;9.20;99.90;;;;;;5046111;28;20229;-77
2022/11/06 08:52:48;;;;;;;4.07;2.00;;;9.40;99.90;;;;;;5029824;28;20225;-77
2022/11/06 08:55:15;;;;;;;3.17;1.80;;;9.40;99.90;;;;;;5027084;28;20230;-77
2022/11/06 08:57:42;;;;;;;6.20;2.07;;;9.50;99.90;;;;;;5045058;28;20222;-78
2022/11/06 09:00:10;;;;;;;7.87;2.60;;;9.50;99.90;;;;;;5039061;28;20218;-80
2022/11/06 09:02:38;;;;;;;5.03;1.90;;;9.60;99.90;;;;;;5039298;28;20317;-76
2022/11/06 09:05:06;;;;;;;4.87;2.00;;;9.60;99.90;;;;;;5033616;28;20233;-77
2022/11/06 09:07:33;;;;;;;4.37;2.10;;;9.70;99.90;;;;;;5045851;28;20736;-76
2022/11/06 09:09:59;;;;;;;3.40;1.80;;;9.80;99.90;;;;;;5044007;28;20222;-76
2022/11/06 09:12:26;;;;;;;3.17;2.17;;;9.80;99.90;;;;;;5043897;28;20235;-78
2022/11/06 09:14:53;;;;;;;4.53;2.77;;;9.90;99.90;;;;;;5045126;28;20223;-77
2022/11/06 09:17:22;;;;;;;6.37;2.20;;;9.90;99.90;;;;;;5042655;28;20234;-77
2022/11/06 09:19:50;;;;;;;3.53;1.90;;;10.00;99.90;;;;;;5043597;28;20242;-75
2022/11/06 09:22:17;;;;;;;3.60;1.90;;;10.10;99.90;;;;;;5036036;28;20251;-76
2022/11/06 09:24:44;;;;;;;3.37;2.00;;;10.20;99.90;;;;;;5040056;28;20254;-79
2022/11/06 09:27:11;;;;;;;4.23;1.70;;;10.30;99.90;;;;;;5026283;28;20220;-78
2022/11/06 09:29:39;;;;;;;3.47;1.70;;;10.30;99.90;;;;;;5031847;28;20271;-78
2022/11/06 09:32:06;;;;;;;3.93;1.93;;;10.40;99.90;;;;;;5022523;28;20305;-78
2022/11/06 09:34:33;;;;;;;2.87;1.67;;;10.50;99.90;;;;;;5034469;28;20285;-77
2022/11/06 09:37:03;;;;;;;3.87;2.23;;;10.50;99.90;;;;;;5020817;28;20281;-77
2022/11/06 09:39:29;;;;;;;3.13;1.83;;;10.50;99.90;;;;;;5037609;28;20224;-77
2022/11/06 09:41:59;;;;;;;4.50;2.10;;;10.60;99.90;;;;;;5039253;28;20219;-77
2022/11/06 09:44:41;;;;;;;6.00;2.20;;;10.70;99.90;;;;;;5038052;28;20227;-77
2022/11/06 09:47:16;;;;;;;2.63;1.70;;;10.70;99.90;;;;;;5038250;28;20224;-78
2022/11/06 09:49:49;;;;;;;3.10;2.33;;;10.80;99.90;;;;;;5027274;28;20591;-78
2022/11/06 09:52:27;;;;;;;6.60;1.87;;;10.80;99.90;;;;;;5040447;28;20685;-78
2022/11/06 09:54:58;;;;;;;3.50;1.80;;;10.80;99.90;;;;;;5021326;28;20761;-79
2022/11/06 09:57:39;;;;;;;3.77;1.60;;;10.80;99.90;;;;;;5036596;28;20229;-78
2022/11/06 10:00:11;;;;;;;5.23;1.60;;;10.90;99.90;;;;;;5039838;28;20254;-78
2022/11/06 10:02:44;;;;;;;3.63;1.50;;;10.80;99.90;;;;;;5034481;28;20227;-78
2022/11/06 10:05:20;;;;;;;6.23;1.93;;;10.80;99.90;;;;;;5037815;28;20664;-78
2022/11/06 10:07:52;;;;;;;4.40;1.80;;;10.80;99.90;;;;;;5022380;28;20228;-80
2022/11/06 10:10:21;;;;;;;3.60;1.53;;;10.90;99.90;;;;;;5039074;28;20708;-79
2022/11/06 10:13:06;;;;;;;4.00;1.80;;;10.90;99.90;;;;;;5041992;28;20574;-80
2022/11/06 10:15:37;;;;;;;4.50;1.63;;;10.90;99.90;;;;;;5033211;28;20798;-79
2022/11/06 10:18:12;;;;;;;5.20;1.60;;;10.90;99.90;;;;;;5041792;28;20224;-80
2022/11/06 10:20:48;;;;;;;3.00;1.70;;;11.00;99.90;;;;;;5035592;28;20337;-80
2022/11/06 10:23:20;;;;;;;5.53;1.90;;;11.10;99.90;;;;;;5015507;28;20224;-79
2022/11/06 10:25:58;;;;;;;4.03;1.40;;;11.30;99.90;;;;;;5035480;28;20223;-80
2022/11/06 10:28:50;;;;;;;4.57;1.63;;;11.40;99.90;;;;;;5028842;28;20707;-80
2022/11/06 10:31:27;;;;;;;4.57;1.97;;;11.50;99.90;;;;;;5023408;28;20327;-80
2022/11/06 10:33:59;;;;;;;2.73;1.40;;;11.60;99.90;;;;;;5041947;28;20263;-79
2022/11/06 10:36:31;;;;;;;4.97;1.40;;;11.70;99.90;;;;;;5034610;28;20237;-80
2022/11/06 10:39:00;;;;;;;3.17;1.60;;;11.60;99.90;;;;;;5031613;28;20779;-79
2022/11/06 10:41:31;;;;;;;5.93;1.50;;;11.60;99.90;;;;;;5021220;28;20221;-79
2022/11/06 10:44:02;;;;;;;5.20;1.53;;;11.60;99.90;;;;;;5040999;28;20220;-79
2022/11/06 10:46:34;;;;;;;5.73;1.70;;;11.60;99.90;;;;;;5025384;28;20229;-80
2022/11/06 10:49:04;;;;;;;4.60;1.60;;;11.60;99.90;;;;;;5022141;28;20218;-79
2022/11/06 10:51:57;;;;;;;2.73;1.53;;;11.60;99.90;;;;;;5027121;28;20228;-80
2022/11/06 10:54:35;;;;;;;3.13;1.57;;;11.70;99.90;;;;;;5040947;28;20227;-80
2022/11/06 10:57:20;;;;;;;5.93;1.50;;;11.80;99.90;;;;;;5035011;28;20559;-80
2022/11/06 10:59:50;;;;;;;2.97;1.40;;;11.90;99.90;;;;;;5033144;28;20631;-79
2022/11/06 11:02:25;;;;;;;3.87;1.80;;;12.00;99.90;;;;;;5029624;28;20906;-80
2022/11/06 11:04:51;;;;;;;3.90;1.30;;;12.00;99.90;;;;;;5043544;28;20985;-79
2022/11/06 11:07:18;;;;;;;4.53;1.60;;;12.10;99.90;;;;;;5042648;28;20225;-79
2022/11/06 11:09:48;;;;;;;3.87;1.63;;;12.10;99.90;;;;;;5056502;28;20287;-79
2022/11/06 11:12:23;;;;;;;7.17;1.90;;;12.00;99.90;;;;;;5048499;28;20251;-79
2022/11/06 11:15:21;;;;;;;4.43;1.50;;;12.10;99.90;;;;;;5026453;28;20258;-80
2022/11/06 11:18:07;;;;;;;3.50;1.63;;;12.10;99.90;;;;;;4964519;28;20754;-80
2022/11/06 11:20:36;;;;;;;4.60;1.67;;;12.20;99.90;;;;;;5036782;28;20324;-80
2022/11/06 11:23:17;;;;;;;3.07;1.60;;;12.30;99.90;;;;;;5036624;28;20223;-80
2022/11/06 11:25:47;;;;;;;7.20;2.80;;;12.30;99.90;;;;;;5046495;28;20242;-80
2022/11/06 11:28:23;;;;;;;4.73;1.53;;;12.40;99.90;;;;;;5029397;28;20218;-80
2022/11/06 11:30:55;;;;;;;4.67;1.90;;;12.50;99.90;;;;;;5024954;28;20249;-80
2022/11/06 11:33:24;;;;;;;2.80;1.60;;;12.60;99.90;;;;;;5023979;28;20223;-80
2022/11/06 11:35:52;;;;;;;5.50;1.70;;;12.80;99.90;;;;;;5027512;28;20568;-80
2022/11/06 11:38:21;;;;;;;2.67;1.70;;;12.90;99.90;;;;;;5047153;28;20327;-80
2022/11/06 11:40:50;;;;;;;3.57;1.83;;;13.00;99.90;;;;;;5037168;28;20607;-80
2022/11/06 11:43:25;;;;;;;4.17;1.53;;;13.20;99.90;;;;;;5047097;28;21019;-80
2022/11/06 11:46:02;;;;;;;3.57;1.60;;;13.30;99.90;;;;;;5047632;28;20226;-80
2022/11/06 11:48:42;;;;;;;2.80;1.37;;;13.40;99.90;;;;;;5046008;28;20231;-80
2022/11/06 11:51:29;;;;;;;3.47;1.30;;;13.60;99.90;;;;;;5039987;28;20223;-80
2022/11/06 11:54:01;;;;;;;4.83;1.50;;;13.70;99.90;;;;;;5046199;28;20235;-79
2022/11/06 11:56:29;;;;;;;2.83;1.27;;;13.90;99.90;;;;;;5048077;28;20233;-80
2022/11/06 11:58:59;;;;;;;3.50;1.50;;;13.90;99.90;;;;;;5028792;28;20314;-79
2022/11/06 12:01:36;;;;;;;3.67;1.23;;;14.00;99.90;;;;;;5048988;28;20226;-80
2022/11/06 12:04:16;;;;;;;2.50;1.20;;;14.10;99.90;;;;;;5046211;28;20825;-80
2022/11/06 12:06:52;;;;;;;3.63;1.43;;;14.10;99.90;;;;;;5034938;28;20231;-80
2022/11/06 12:09:19;;;;;;;2.33;1.23;;;14.20;99.90;;;;;;5028445;28;20310;-79
2022/11/06 12:11:48;;;;;;;4.80;1.40;;;14.10;99.90;;;;;;5027995;28;20246;-79
2022/11/06 12:14:25;;;;;;;2.57;1.03;;;14.10;99.90;;;;;;5027433;28;20321;-80
2022/11/06 12:16:55;;;;;;;2.40;1.30;;;14.00;99.40;;;;;;5047692;28;20243;-80
2022/11/06 12:19:26;;;;;;;2.87;1.43;;;14.00;99.90;;;;;;5032638;28;20229;-79
2022/11/06 12:21:57;;;;;;;2.80;1.20;;;14.00;99.90;;;;;;5045919;28;20231;-79
2022/11/06 12:24:30;;;;;;;4.43;1.50;;;13.90;99.90;;;;;;5026346;28;20598;-79
2022/11/06 12:27:04;;;;;;;3.17;1.30;;;13.90;99.90;;;;;;5026976;28;20313;-80
2022/11/06 12:29:34;;;;;;;4.57;1.17;;;13.90;99.90;;;;;;5046211;28;20225;-80
2022/11/06 12:32:06;;;;;;;3.40;1.30;;;13.90;99.90;;;;;;5020813;28;20229;-79
2022/11/06 12:34:37;;;;;;;3.90;1.40;;;13.90;99.90;;;;;;5031102;28;20245;-81
2022/11/06 12:37:18;;;;;;;2.60;1.20;;;13.80;99.90;;;;;;5019678;28;20227;-78
2022/11/06 12:39:49;;;;;;;2.23;1.30;;;13.90;99.90;;;;;;5049087;28;21216;-81
2022/11/06 12:42:19;;;;;;;2.87;1.20;;;14.00;99.90;;;;;;5033076;28;20226;-79
2022/11/06 12:44:47;;;;;;;2.63;1.43;;;14.00;99.90;;;;;;5045027;28;20305;-81
2022/11/06 12:47:25;;;;;;;2.63;1.30;;;14.00;99.90;;;;;;5025533;28;20229;-79
2022/11/06 12:50:12;;;;;;;3.33;1.23;;;14.00;99.90;;;;;;5028944;28;20313;-80
2022/11/06 12:52:53;;;;;;;1.87;1.30;;;14.00;99.90;;;;;;5037522;28;20220;-79
2022/11/06 12:55:26;;;;;;;3.87;1.70;;;14.00;99.90;;;;;;5036075;28;20328;-79
2022/11/06 12:58:16;;;;;;;3.67;1.77;;;13.90;99.90;;;;;;5023918;28;20223;-79
2022/11/06 13:00:57;;;;;;;3.27;1.30;;;13.90;99.90;;;;;;5026002;28;20224;-80
2022/11/06 13:03:56;;;;;;;4.03;1.33;;;13.80;99.90;;;;;;5033382;28;20232;-80
2022/11/06 13:06:32;;;;;;;4.00;1.50;;;13.90;99.90;;;;;;5039281;28;20233;-79
2022/11/06 13:09:09;;;;;;;3.40;1.80;;;13.80;99.80;;;;;;5044460;28;20693;-79
2022/11/06 13:11:46;;;;;;;4.97;2.80;;;13.80;99.90;;;;;;5032827;28;20224;-80
2022/11/06 13:14:28;;;;;;;7.23;3.90;;;13.80;99.90;;;;;;5039196;28;20322;-80
2022/11/06 13:17:03;;;;;;;4.30;2.33;;;13.90;99.90;;;;;;5051085;28;20758;-79
2022/11/06 13:19:40;;;;;;;3.77;2.00;;;13.90;99.90;;;;;;5043416;28;20231;-79
2022/11/06 13:22:21;;;;;;;4.00;1.83;;;13.90;99.90;;;;;;5036660;28;20222;-80
2022/11/06 13:24:56;;;;;;;2.40;1.50;;;13.80;99.80;;;;;;5044056;28;20227;-79
2022/11/06 13:27:29;;;;;;;3.10;1.40;;;13.70;99.90;;;;;;5028362;28;20215;-79